Hangzhou Xiaoshan International Airport
ZSHC : now visible

Airfield :











YOU CAN JOIN US ON...

 
LOGIN :

Register | Disclaimer

   EN    FR    IT 

 









Legend :    VFR   Marginal VFR   IFR   Intensive IFR   Very Intensive IFR
Visi :
Ceiling :
>= 8 km
>= 3000ft
5 to 8 km
1000 to 3000 ft
1500m to 5 km
500 to 1000 ft
800 to 1500m
200 to 500 ft
< 800m
< 200 ft
Symbols :   Thunderstorms  Fog  Heavy snow  Heavy precipitations  Wind > 20 kt






- Airport Elevation : 23 ft
- IATA code : HGH


ZSHC - Hangzhou Xiaoshan International

CURRENT METAR :
  • 162330Z 09005MPS 060V130 9999 -RA FEW010 BKN017 22/20 Q1007 NOSIG

EXPIRED METARs :
  • 162300Z 10004MPS 8000 -RA FEW010 BKN017 22/21 Q1006 NOSIG
  • 162230Z 09003MPS 9999 -RA FEW010 BKN017 22/20 Q1007 NOSIG
  • 162200Z 07002MPS 030V090 9999 -RA FEW010 BKN017 22/20 Q1007 NOSIG
  • 162130Z 08003MPS 050V110 9999 -RA FEW010 BKN017 22/20 Q1006 NOSIG
  • 162100Z 09004MPS 9999 -RA FEW010 BKN017 22/20 Q1006 NOSIG
  • 162030Z 11004MPS 070V140 9999 FEW017 22/20 Q1006 NOSIG
  • 162000Z 09006MPS 9999 SCT020 23/19 Q1006 NOSIG
  • 161930Z 09004MPS 070V130 9999 SCT023 23/19 Q1006 NOSIG
  • 161900Z 08004MPS 9999 SCT040 23/19 Q1006 NOSIG

TAF TAF ZSHC
Valid from the 17 at 00:00 until the 18 at 00:00 UTC


162112Z 1700/1724 09004MPS 3000 BR SCT030 TX30/1706Z TN22/1721Z
ZSHA FIR / Asia



MET'MAP, your aeronautical weather chart ! - Copyright ORBIFLY December 2007 - Disclaimer

ORBIFLY MET'MAP TEAM :

Programming & Development : Alexandra Zaïnal
Original concept : Baudouin d'Aumeries
Technical & hardware support : Manuel Goepfert
Assistance : Marc-Olivier Méhu




SOURCES & CREDITS :

   NOAA       Earth
Advisory